Ackerman, Mississippi
Current Conditions -  °F | °C
As of 4:35 PM on Friday 28 Nov 2014 (Local Time) from KSTF Reporting Station
Clear Clear  
Wind Chill: 50°   Ceiling: Unl
Heat Index: 50°   Visibility: NA
Dew Point: 30°   Wind: 5mph
Humidity: 47%   Direction: 140°SE
Pressure: 30.24"   Gusts: NA
Location:  33.31°N, 89.17°W
Report Text: KSTF 282235Z AUTO 14004KT CLR 10/M01 A3024 RMK AO2 PWINO
Loading
Personal Weather Stations






























Interactive Weather Map New forecast layout! Learn more

10-Day Weather Forecast

Advertisements
Track Severe Weather on mobile